Aérodrome :
LOGIN :

S'inscrire | Disclaimer

   EN    FR    IT 

 










Légende :    VFR   VFR Marginal   IFR   IFR Intensif   IFR Très Intensif
Visi : 
Plafond : 
>= 8 km
>= 3000ft
5 à 8 km
1000 à 3000 ft
1500m à 5 km
500 à 1000 ft
800 à 1500m
200 à 500 ft
< 800m
< 200 ft
Symboles :   Orages  Brouillard  Fortes neiges  Fortes précipitations  Vent > 20 kt
SIGMETs :   Divers  Orages  Givrage  Turbulence  Onde Orograph.  Cendres Volcan.







- Altitude de l'aérodrome : 276 ft
- Code IATA : RBA


GMME - Rabat

DERNIER METAR :
  • 161800Z 29004KT 5000 BKN013TCU BKN020 20/17 Q1016 NOSIG

METARs EXPIRÉS :
  • 161730Z 30004KT 220V340 5000 BKN013TCU BKN020 19/17 Q1016 NOSIG
  • 161700Z 33007KT 5000 BKN013TCU BKN020 19/17 Q1015 RERA NOSIG
  • 161630Z 30007KT 270V330 3000 -RA BKN013TCU BKN020 19/17 Q1015 NOSIG
  • 161600Z 32010KT 3000 SHRA BKN013TCU BKN020 20/17 Q1015 NOSIG
  • 161530Z 28012KT 260V330 7000 SCT013 BKN020 22/17 Q1015 NOSIG

TAF TAF GMME
Valide du 16 à 18h jusqu'au 18 à 00h UTC


161700Z 1618/1724 24010KT 6000 BKN015 BKB015
TEMPO 1618/1624 24014KT 3000 SHRA BKN013TCU
BECMG 1700/1702 16006KT
BECMG 1710/1712 34012KT 8000 SCT013 SCT020
Pas de NOTAMs connus pour ce terrain.
2 SIGMETs publiés pour la FIR Casablanca (GMMM) :
 
Onde orographique forte
GMMM SIGMET 06 VALID 161635/162035 GMMC
GMMM CASABLANCA FIR SEV MTW FCST E OF LINE N3435 W00330 - N3252 W005 10 TOP FL020/100 STNR WKN=
Annulation du SIGMET 04
GMMM SIGMET 05 VALID 161625/161745 GMMC
GMMM CASABLANCA FIR CNL SIGMET 04 1245/1745=



MET'MAP, la Météo Aéronautique d'un coup d'oeil ! - Copyright ORBIFLY Décembre 2007 - Disclaimer

ORBIFLY MET'MAP TEAM :

Programmation & Développement : Alexandra Zaïnal
Conception & Développement : Baudouin d'Aumeries
Co-Programmation & Développement : Marc-Olivier Méhu
Soutien technique & logistique : Manuel Goepfert

Contact : metmap@orbifly.com




SOURCES & CREDITS :

   NOAA